sensor_id;sensor_type;location;lat;lon;timestamp;P1;durP1;ratioP1;P2;durP2;ratioP2
12986;SDS011;58897;51.960;5.582;2024-01-16T00:02:04;1.42;;;0.82;;
12986;SDS011;58897;51.960;5.582;2024-01-16T00:04:31;1.42;;;0.95;;
12986;SDS011;58897;51.960;5.582;2024-01-16T00:09:24;1.98;;;1.00;;
12986;SDS011;58897;51.960;5.582;2024-01-16T00:14:17;2.60;;;1.52;;
12986;SDS011;58897;51.960;5.582;2024-01-16T00:16:45;2.10;;;1.02;;
12986;SDS011;58897;51.960;5.582;2024-01-16T00:19:13;1.17;;;1.00;;
12986;SDS011;58897;51.960;5.582;2024-01-16T00:21:40;1.52;;;0.88;;
12986;SDS011;58897;51.960;5.582;2024-01-16T00:24:07;2.28;;;1.27;;
12986;SDS011;58897;51.960;5.582;2024-01-16T00:26:35;0.68;;;0.47;;
12986;SDS011;58897;51.960;5.582;2024-01-16T00:29:02;1.02;;;0.65;;
12986;SDS011;58897;51.960;5.582;2024-01-16T00:31:29;0.68;;;0.65;;
12986;SDS011;58897;51.960;5.582;2024-01-16T00:36:22;4.43;;;1.65;;
12986;SDS011;58897;51.960;5.582;2024-01-16T00:38:48;1.58;;;0.68;;
12986;SDS011;58897;51.960;5.582;2024-01-16T00:43:45;1.15;;;0.82;;
12986;SDS011;58897;51.960;5.582;2024-01-16T00:46:12;4.60;;;1.80;;
12986;SDS011;58897;51.960;5.582;2024-01-16T00:48:38;2.28;;;0.95;;
12986;SDS011;58897;51.960;5.582;2024-01-16T00:51:05;1.83;;;0.90;;
12986;SDS011;58897;51.960;5.582;2024-01-16T00:53:32;1.90;;;1.08;;
12986;SDS011;58897;51.960;5.582;2024-01-16T00:58:25;2.10;;;1.00;;
12986;SDS011;58897;51.960;5.582;2024-01-16T01:00:52;1.40;;;0.98;;
12986;SDS011;58897;51.960;5.582;2024-01-16T01:03:19;2.58;;;1.25;;
12986;SDS011;58897;51.960;5.582;2024-01-16T01:05:45;1.27;;;1.05;;
12986;SDS011;58897;51.960;5.582;2024-01-16T01:08:12;1.65;;;1.10;;
12986;SDS011;58897;51.960;5.582;2024-01-16T01:13:06;2.08;;;1.27;;
12986;SDS011;58897;51.960;5.582;2024-01-16T01:15:32;2.20;;;0.90;;
12986;SDS011;58897;51.960;5.582;2024-01-16T01:17:59;2.15;;;1.08;;
12986;SDS011;58897;51.960;5.582;2024-01-16T01:20:26;1.58;;;0.80;;
12986;SDS011;58897;51.960;5.582;2024-01-16T01:25:19;2.03;;;1.17;;
12986;SDS011;58897;51.960;5.582;2024-01-16T01:27:46;1.38;;;0.93;;
12986;SDS011;58897;51.960;5.582;2024-01-16T01:30:13;2.85;;;1.17;;
12986;SDS011;58897;51.960;5.582;2024-01-16T01:32:40;0.57;;;0.57;;
12986;SDS011;58897;51.960;5.582;2024-01-16T01:35:07;2.75;;;1.48;;
12986;SDS011;58897;51.960;5.582;2024-01-16T01:37:34;3.45;;;1.55;;
12986;SDS011;58897;51.960;5.582;2024-01-16T01:40:01;1.88;;;0.93;;
12986;SDS011;58897;51.960;5.582;2024-01-16T01:42:27;2.03;;;1.00;;
12986;SDS011;58897;51.960;5.582;2024-01-16T01:44:54;2.72;;;1.58;;
12986;SDS011;58897;51.960;5.582;2024-01-16T01:49:47;1.05;;;0.80;;
12986;SDS011;58897;51.960;5.582;2024-01-16T01:52:14;2.95;;;1.27;;
12986;SDS011;58897;51.960;5.582;2024-01-16T01:54:41;2.60;;;1.48;;
12986;SDS011;58897;51.960;5.582;2024-01-16T01:59:34;3.35;;;1.40;;
12986;SDS011;58897;51.960;5.582;2024-01-16T02:02:01;0.95;;;0.75;;
12986;SDS011;58897;51.960;5.582;2024-01-16T02:04:29;3.05;;;1.23;;
12986;SDS011;58897;51.960;5.582;2024-01-16T02:06:57;1.05;;;0.95;;
12986;SDS011;58897;51.960;5.582;2024-01-16T02:09:24;4.30;;;1.42;;
12986;SDS011;58897;51.960;5.582;2024-01-16T02:11:51;0.88;;;0.70;;
12986;SDS011;58897;51.960;5.582;2024-01-16T02:16:44;1.42;;;1.00;;
12986;SDS011;58897;51.960;5.582;2024-01-16T02:19:11;3.50;;;1.67;;
12986;SDS011;58897;51.960;5.582;2024-01-16T02:21:42;6.35;;;1.75;;
12986;SDS011;58897;51.960;5.582;2024-01-16T02:24:16;2.05;;;1.30;;
12986;SDS011;58897;51.960;5.582;2024-01-16T02:26:44;2.78;;;1.50;;
12986;SDS011;58897;51.960;5.582;2024-01-16T02:29:11;2.13;;;1.20;;
12986;SDS011;58897;51.960;5.582;2024-01-16T02:34:05;0.93;;;0.73;;
12986;SDS011;58897;51.960;5.582;2024-01-16T02:36:32;3.85;;;2.10;;
12986;SDS011;58897;51.960;5.582;2024-01-16T02:38:58;3.30;;;1.63;;
12986;SDS011;58897;51.960;5.582;2024-01-16T02:41:26;3.55;;;1.63;;
12986;SDS011;58897;51.960;5.582;2024-01-16T02:43:52;1.60;;;1.08;;
12986;SDS011;58897;51.960;5.582;2024-01-16T02:48:45;4.13;;;1.10;;
12986;SDS011;58897;51.960;5.582;2024-01-16T02:51:13;2.15;;;1.30;;
12986;SDS011;58897;51.960;5.582;2024-01-16T02:56:07;1.42;;;0.73;;
12986;SDS011;58897;51.960;5.582;2024-01-16T02:58:34;3.83;;;1.70;;
12986;SDS011;58897;51.960;5.582;2024-01-16T03:01:01;3.22;;;1.73;;
12986;SDS011;58897;51.960;5.582;2024-01-16T03:05:54;2.60;;;1.65;;
12986;SDS011;58897;51.960;5.582;2024-01-16T03:08:22;2.08;;;1.40;;
12986;SDS011;58897;51.960;5.582;2024-01-16T03:13:15;2.58;;;1.63;;
12986;SDS011;58897;51.960;5.582;2024-01-16T03:15:42;6.75;;;2.10;;
12986;SDS011;58897;51.960;5.582;2024-01-16T03:18:09;1.40;;;0.98;;
12986;SDS011;58897;51.960;5.582;2024-01-16T03:20:36;1.95;;;1.08;;
12986;SDS011;58897;51.960;5.582;2024-01-16T03:23:02;2.00;;;1.10;;
12986;SDS011;58897;51.960;5.582;2024-01-16T03:25:30;2.50;;;1.70;;
12986;SDS011;58897;51.960;5.582;2024-01-16T03:27:57;2.22;;;1.55;;
12986;SDS011;58897;51.960;5.582;2024-01-16T03:30:24;2.13;;;0.88;;
12986;SDS011;58897;51.960;5.582;2024-01-16T03:32:51;0.75;;;0.63;;
12986;SDS011;58897;51.960;5.582;2024-01-16T03:37:44;2.70;;;1.30;;
12986;SDS011;58897;51.960;5.582;2024-01-16T03:40:10;1.95;;;1.17;;
12986;SDS011;58897;51.960;5.582;2024-01-16T03:42:39;1.92;;;1.02;;
12986;SDS011;58897;51.960;5.582;2024-01-16T03:45:05;1.38;;;1.00;;
12986;SDS011;58897;51.960;5.582;2024-01-16T03:47:32;2.10;;;1.15;;
12986;SDS011;58897;51.960;5.582;2024-01-16T03:49:59;1.98;;;1.08;;
12986;SDS011;58897;51.960;5.582;2024-01-16T03:52:26;1.70;;;0.95;;
12986;SDS011;58897;51.960;5.582;2024-01-16T03:54:52;4.15;;;1.58;;
12986;SDS011;58897;51.960;5.582;2024-01-16T03:57:19;2.28;;;1.23;;
12986;SDS011;58897;51.960;5.582;2024-01-16T03:59:46;2.13;;;1.17;;
12986;SDS011;58897;51.960;5.582;2024-01-16T04:04:39;2.22;;;1.58;;
12986;SDS011;58897;51.960;5.582;2024-01-16T04:07:05;3.40;;;1.40;;
12986;SDS011;58897;51.960;5.582;2024-01-16T04:09:32;1.02;;;0.90;;
12986;SDS011;58897;51.960;5.582;2024-01-16T04:11:59;2.42;;;1.35;;
12986;SDS011;58897;51.960;5.582;2024-01-16T04:14:25;1.35;;;0.75;;
12986;SDS011;58897;51.960;5.582;2024-01-16T04:16:52;4.57;;;1.40;;
12986;SDS011;58897;51.960;5.582;2024-01-16T04:19:19;1.63;;;0.77;;
12986;SDS011;58897;51.960;5.582;2024-01-16T04:24:12;0.63;;;0.63;;
12986;SDS011;58897;51.960;5.582;2024-01-16T04:26:39;2.50;;;1.30;;
12986;SDS011;58897;51.960;5.582;2024-01-16T04:29:05;2.53;;;1.20;;
12986;SDS011;58897;51.960;5.582;2024-01-16T04:31:35;1.77;;;0.93;;
12986;SDS011;58897;51.960;5.582;2024-01-16T04:34:06;1.38;;;1.20;;
12986;SDS011;58897;51.960;5.582;2024-01-16T04:36:34;2.05;;;1.13;;
12986;SDS011;58897;51.960;5.582;2024-01-16T04:39:00;1.83;;;1.10;;
12986;SDS011;58897;51.960;5.582;2024-01-16T04:43:53;2.08;;;1.20;;
12986;SDS011;58897;51.960;5.582;2024-01-16T04:46:20;1.45;;;0.90;;
12986;SDS011;58897;51.960;5.582;2024-01-16T04:51:13;1.27;;;0.80;;
12986;SDS011;58897;51.960;5.582;2024-01-16T04:53:40;2.83;;;1.75;;
12986;SDS011;58897;51.960;5.582;2024-01-16T04:56:07;0.93;;;0.70;;
12986;SDS011;58897;51.960;5.582;2024-01-16T05:01:00;1.52;;;0.77;;
12986;SDS011;58897;51.960;5.582;2024-01-16T05:03:27;0.98;;;0.65;;
12986;SDS011;58897;51.960;5.582;2024-01-16T05:08:20;1.42;;;0.70;;
12986;SDS011;58897;51.960;5.582;2024-01-16T05:10:47;2.40;;;1.27;;
12986;SDS011;58897;51.960;5.582;2024-01-16T05:13:14;1.95;;;0.93;;
12986;SDS011;58897;51.960;5.582;2024-01-16T05:18:07;1.92;;;0.95;;
12986;SDS011;58897;51.960;5.582;2024-01-16T05:20:34;0.93;;;0.68;;
12986;SDS011;58897;51.960;5.582;2024-01-16T05:23:00;1.60;;;1.23;;
12986;SDS011;58897;51.960;5.582;2024-01-16T05:25:27;1.17;;;0.70;;
12986;SDS011;58897;51.960;5.582;2024-01-16T05:30:20;2.83;;;1.30;;
12986;SDS011;58897;51.960;5.582;2024-01-16T05:32:47;1.55;;;0.73;;
12986;SDS011;58897;51.960;5.582;2024-01-16T05:37:40;1.08;;;0.73;;
12986;SDS011;58897;51.960;5.582;2024-01-16T05:40:07;1.90;;;1.08;;
12986;SDS011;58897;51.960;5.582;2024-01-16T05:42:34;9.93;;;1.60;;
12986;SDS011;58897;51.960;5.582;2024-01-16T05:45:02;3.08;;;2.00;;
12986;SDS011;58897;51.960;5.582;2024-01-16T05:47:29;1.35;;;0.90;;
12986;SDS011;58897;51.960;5.582;2024-01-16T05:49:57;2.33;;;1.10;;
12986;SDS011;58897;51.960;5.582;2024-01-16T05:52:23;1.40;;;0.90;;
12986;SDS011;58897;51.960;5.582;2024-01-16T05:54:50;2.20;;;1.10;;
12986;SDS011;58897;51.960;5.582;2024-01-16T05:57:16;2.15;;;1.35;;
12986;SDS011;58897;51.960;5.582;2024-01-16T06:02:10;3.10;;;1.88;;
12986;SDS011;58897;51.960;5.582;2024-01-16T06:04:37;3.15;;;1.33;;
12986;SDS011;58897;51.960;5.582;2024-01-16T06:07:04;1.75;;;0.88;;
12986;SDS011;58897;51.960;5.582;2024-01-16T06:09:33;1.38;;;1.25;;
12986;SDS011;58897;51.960;5.582;2024-01-16T06:12:04;3.90;;;1.60;;
12986;SDS011;58897;51.960;5.582;2024-01-16T06:14:31;1.13;;;0.93;;
12986;SDS011;58897;51.960;5.582;2024-01-16T06:16:58;1.13;;;0.77;;
12986;SDS011;58897;51.960;5.582;2024-01-16T06:19:25;1.33;;;0.88;;
12986;SDS011;58897;51.960;5.582;2024-01-16T06:21:52;1.80;;;1.00;;
12986;SDS011;58897;51.960;5.582;2024-01-16T06:24:19;2.22;;;1.15;;
12986;SDS011;58897;51.960;5.582;2024-01-16T06:26:45;1.48;;;1.02;;
12986;SDS011;58897;51.960;5.582;2024-01-16T06:29:12;2.35;;;1.40;;
12986;SDS011;58897;51.960;5.582;2024-01-16T06:31:53;7.43;;;1.60;;
12986;SDS011;58897;51.960;5.582;2024-01-16T06:36:46;1.85;;;1.40;;
12986;SDS011;58897;51.960;5.582;2024-01-16T06:41:40;1.00;;;0.75;;
12986;SDS011;58897;51.960;5.582;2024-01-16T06:44:07;1.98;;;1.15;;
12986;SDS011;58897;51.960;5.582;2024-01-16T06:46:34;2.05;;;1.33;;
12986;SDS011;58897;51.960;5.582;2024-01-16T06:49:01;3.10;;;1.70;;
12986;SDS011;58897;51.960;5.582;2024-01-16T06:51:28;2.88;;;2.00;;
12986;SDS011;58897;51.960;5.582;2024-01-16T06:53:55;1.27;;;0.88;;
12986;SDS011;58897;51.960;5.582;2024-01-16T06:56:21;2.22;;;1.52;;
12986;SDS011;58897;51.960;5.582;2024-01-16T06:58:50;2.38;;;1.30;;
12986;SDS011;58897;51.960;5.582;2024-01-16T07:01:17;2.35;;;1.38;;
12986;SDS011;58897;51.960;5.582;2024-01-16T07:03:44;2.33;;;2.08;;
12986;SDS011;58897;51.960;5.582;2024-01-16T07:08:38;2.15;;;1.27;;
12986;SDS011;58897;51.960;5.582;2024-01-16T07:11:05;3.10;;;1.52;;
12986;SDS011;58897;51.960;5.582;2024-01-16T07:13:35;2.00;;;1.20;;
12986;SDS011;58897;51.960;5.582;2024-01-16T07:16:01;4.38;;;2.15;;
12986;SDS011;58897;51.960;5.582;2024-01-16T07:20:54;2.00;;;1.05;;
12986;SDS011;58897;51.960;5.582;2024-01-16T07:23:21;2.15;;;1.70;;
12986;SDS011;58897;51.960;5.582;2024-01-16T07:28:14;6.68;;;2.03;;
12986;SDS011;58897;51.960;5.582;2024-01-16T07:30:41;2.90;;;2.00;;
12986;SDS011;58897;51.960;5.582;2024-01-16T07:35:34;3.75;;;1.40;;
12986;SDS011;58897;51.960;5.582;2024-01-16T07:38:01;5.00;;;2.13;;
12986;SDS011;58897;51.960;5.582;2024-01-16T07:40:31;3.85;;;2.38;;
12986;SDS011;58897;51.960;5.582;2024-01-16T07:43:00;2.30;;;1.40;;
12986;SDS011;58897;51.960;5.582;2024-01-16T07:45:27;6.18;;;2.10;;
12986;SDS011;58897;51.960;5.582;2024-01-16T07:48:00;1.83;;;1.50;;
12986;SDS011;58897;51.960;5.582;2024-01-16T07:50:28;5.35;;;2.65;;
12986;SDS011;58897;51.960;5.582;2024-01-16T07:52:57;3.20;;;1.80;;
12986;SDS011;58897;51.960;5.582;2024-01-16T07:55:24;2.50;;;1.67;;
12986;SDS011;58897;51.960;5.582;2024-01-16T07:57:51;3.40;;;2.45;;
12986;SDS011;58897;51.960;5.582;2024-01-16T08:00:18;3.78;;;2.53;;
12986;SDS011;58897;51.960;5.582;2024-01-16T08:02:45;2.22;;;1.58;;
12986;SDS011;58897;51.960;5.582;2024-01-16T08:07:38;2.75;;;2.03;;
12986;SDS011;58897;51.960;5.582;2024-01-16T08:10:08;3.08;;;1.58;;
12986;SDS011;58897;51.960;5.582;2024-01-16T08:12:35;2.35;;;1.40;;
12986;SDS011;58897;51.960;5.582;2024-01-16T08:15:04;3.90;;;2.20;;
12986;SDS011;58897;51.960;5.582;2024-01-16T08:17:31;2.47;;;1.80;;
12986;SDS011;58897;51.960;5.582;2024-01-16T08:22:24;7.22;;;3.40;;
12986;SDS011;58897;51.960;5.582;2024-01-16T08:24:51;6.63;;;2.80;;
12986;SDS011;58897;51.960;5.582;2024-01-16T08:27:18;8.80;;;3.22;;
12986;SDS011;58897;51.960;5.582;2024-01-16T08:29:45;2.55;;;1.80;;
12986;SDS011;58897;51.960;5.582;2024-01-16T08:32:14;3.22;;;2.30;;
12986;SDS011;58897;51.960;5.582;2024-01-16T08:34:41;5.07;;;2.80;;
12986;SDS011;58897;51.960;5.582;2024-01-16T08:37:08;6.10;;;2.00;;
12986;SDS011;58897;51.960;5.582;2024-01-16T08:39:35;3.03;;;1.70;;
12986;SDS011;58897;51.960;5.582;2024-01-16T08:42:02;7.88;;;3.28;;
12986;SDS011;58897;51.960;5.582;2024-01-16T08:44:29;2.55;;;1.73;;
12986;SDS011;58897;51.960;5.582;2024-01-16T08:46:56;4.68;;;2.00;;
12986;SDS011;58897;51.960;5.582;2024-01-16T08:49:24;3.17;;;1.98;;
12986;SDS011;58897;51.960;5.582;2024-01-16T08:51:50;4.63;;;3.78;;
12986;SDS011;58897;51.960;5.582;2024-01-16T08:54:17;3.08;;;1.67;;
12986;SDS011;58897;51.960;5.582;2024-01-16T08:59:10;2.10;;;1.20;;
12986;SDS011;58897;51.960;5.582;2024-01-16T09:01:37;23.40;;;2.75;;
12986;SDS011;58897;51.960;5.582;2024-01-16T09:04:04;4.43;;;2.28;;
12986;SDS011;58897;51.960;5.582;2024-01-16T09:06:31;6.53;;;3.03;;
12986;SDS011;58897;51.960;5.582;2024-01-16T09:08:57;2.05;;;1.33;;
12986;SDS011;58897;51.960;5.582;2024-01-16T09:11:28;3.90;;;1.70;;
12986;SDS011;58897;51.960;5.582;2024-01-16T09:13:55;6.80;;;3.17;;
12986;SDS011;58897;51.960;5.582;2024-01-16T09:16:30;3.22;;;1.77;;
12986;SDS011;58897;51.960;5.582;2024-01-16T09:18:56;3.17;;;2.17;;
12986;SDS011;58897;51.960;5.582;2024-01-16T09:21:23;3.13;;;2.00;;
12986;SDS011;58897;51.960;5.582;2024-01-16T09:23:50;10.10;;;3.00;;
12986;SDS011;58897;51.960;5.582;2024-01-16T09:26:17;5.10;;;1.77;;
12986;SDS011;58897;51.960;5.582;2024-01-16T09:28:44;2.50;;;1.50;;
12986;SDS011;58897;51.960;5.582;2024-01-16T09:31:11;5.05;;;2.55;;
12986;SDS011;58897;51.960;5.582;2024-01-16T09:33:37;4.25;;;2.15;;
12986;SDS011;58897;51.960;5.582;2024-01-16T09:36:05;2.13;;;1.33;;
12986;SDS011;58897;51.960;5.582;2024-01-16T09:38:32;4.05;;;1.75;;
12986;SDS011;58897;51.960;5.582;2024-01-16T09:40:59;2.38;;;1.75;;
12986;SDS011;58897;51.960;5.582;2024-01-16T09:43:26;4.30;;;2.30;;
12986;SDS011;58897;51.960;5.582;2024-01-16T09:45:54;4.70;;;1.55;;
12986;SDS011;58897;51.960;5.582;2024-01-16T09:48:26;4.85;;;2.53;;
12986;SDS011;58897;51.960;5.582;2024-01-16T09:50:55;2.83;;;1.63;;
12986;SDS011;58897;51.960;5.582;2024-01-16T09:53:22;4.93;;;2.53;;
12986;SDS011;58897;51.960;5.582;2024-01-16T09:55:49;2.08;;;1.42;;
12986;SDS011;58897;51.960;5.582;2024-01-16T09:58:17;5.88;;;2.78;;
12986;SDS011;58897;51.960;5.582;2024-01-16T10:00:51;4.45;;;2.08;;
12986;SDS011;58897;51.960;5.582;2024-01-16T10:03:18;5.85;;;3.42;;
12986;SDS011;58897;51.960;5.582;2024-01-16T10:05:45;2.70;;;1.90;;
12986;SDS011;58897;51.960;5.582;2024-01-16T10:08:14;4.03;;;2.15;;
12986;SDS011;58897;51.960;5.582;2024-01-16T10:10:40;4.55;;;2.85;;
12986;SDS011;58897;51.960;5.582;2024-01-16T10:13:15;3.70;;;2.30;;
12986;SDS011;58897;51.960;5.582;2024-01-16T10:15:43;9.88;;;2.95;;
12986;SDS011;58897;51.960;5.582;2024-01-16T10:18:23;3.38;;;2.55;;
12986;SDS011;58897;51.960;5.582;2024-01-16T10:20:53;3.28;;;2.00;;
12986;SDS011;58897;51.960;5.582;2024-01-16T10:23:27;3.40;;;1.80;;
12986;SDS011;58897;51.960;5.582;2024-01-16T10:26:08;3.63;;;2.63;;
12986;SDS011;58897;51.960;5.582;2024-01-16T10:28:37;4.15;;;2.15;;
12986;SDS011;58897;51.960;5.582;2024-01-16T10:31:05;5.40;;;2.40;;
12986;SDS011;58897;51.960;5.582;2024-01-16T10:33:35;6.68;;;2.80;;
12986;SDS011;58897;51.960;5.582;2024-01-16T10:36:12;3.60;;;2.20;;
12986;SDS011;58897;51.960;5.582;2024-01-16T10:38:43;6.43;;;2.50;;
12986;SDS011;58897;51.960;5.582;2024-01-16T10:41:11;8.43;;;2.72;;
12986;SDS011;58897;51.960;5.582;2024-01-16T10:43:39;3.50;;;2.47;;
12986;SDS011;58897;51.960;5.582;2024-01-16T10:46:13;3.25;;;2.10;;
12986;SDS011;58897;51.960;5.582;2024-01-16T10:49:03;3.17;;;2.35;;
12986;SDS011;58897;51.960;5.582;2024-01-16T10:51:30;3.63;;;2.45;;
12986;SDS011;58897;51.960;5.582;2024-01-16T10:56:28;5.60;;;2.72;;
12986;SDS011;58897;51.960;5.582;2024-01-16T11:01:28;4.82;;;2.55;;
12986;SDS011;58897;51.960;5.582;2024-01-16T11:03:56;5.85;;;2.13;;
12986;SDS011;58897;51.960;5.582;2024-01-16T11:06:23;4.65;;;2.72;;
12986;SDS011;58897;51.960;5.582;2024-01-16T11:08:50;3.70;;;2.72;;
12986;SDS011;58897;51.960;5.582;2024-01-16T11:11:18;5.50;;;2.63;;
12986;SDS011;58897;51.960;5.582;2024-01-16T11:13:45;5.53;;;2.50;;
12986;SDS011;58897;51.960;5.582;2024-01-16T11:16:16;8.43;;;3.50;;
12986;SDS011;58897;51.960;5.582;2024-01-16T11:18:45;7.60;;;3.00;;
12986;SDS011;58897;51.960;5.582;2024-01-16T11:21:12;4.80;;;3.00;;
12986;SDS011;58897;51.960;5.582;2024-01-16T11:23:44;5.15;;;2.80;;
12986;SDS011;58897;51.960;5.582;2024-01-16T11:26:24;4.22;;;3.03;;
12986;SDS011;58897;51.960;5.582;2024-01-16T11:28:54;3.60;;;2.38;;
12986;SDS011;58897;51.960;5.582;2024-01-16T11:34:00;5.05;;;2.60;;
12986;SDS011;58897;51.960;5.582;2024-01-16T11:36:48;9.25;;;2.90;;
12986;SDS011;58897;51.960;5.582;2024-01-16T11:39:26;6.53;;;2.72;;
12986;SDS011;58897;51.960;5.582;2024-01-16T11:41:56;5.55;;;2.90;;
12986;SDS011;58897;51.960;5.582;2024-01-16T11:44:45;4.72;;;2.72;;
12986;SDS011;58897;51.960;5.582;2024-01-16T11:47:22;5.45;;;2.60;;
12986;SDS011;58897;51.960;5.582;2024-01-16T11:49:51;8.68;;;3.08;;
12986;SDS011;58897;51.960;5.582;2024-01-16T11:58:13;4.82;;;2.70;;
12986;SDS011;58897;51.960;5.582;2024-01-16T12:01:05;3.25;;;2.10;;
12986;SDS011;58897;51.960;5.582;2024-01-16T12:03:32;4.47;;;2.42;;
12986;SDS011;58897;51.960;5.582;2024-01-16T12:06:01;5.75;;;3.03;;
12986;SDS011;58897;51.960;5.582;2024-01-16T12:08:30;4.00;;;2.63;;
12986;SDS011;58897;51.960;5.582;2024-01-16T12:10:57;5.65;;;2.42;;
12986;SDS011;58897;51.960;5.582;2024-01-16T12:13:24;4.70;;;2.33;;
12986;SDS011;58897;51.960;5.582;2024-01-16T12:16:00;4.65;;;2.83;;
12986;SDS011;58897;51.960;5.582;2024-01-16T12:18:28;4.13;;;2.13;;
12986;SDS011;58897;51.960;5.582;2024-01-16T12:21:08;4.88;;;2.80;;
12986;SDS011;58897;51.960;5.582;2024-01-16T12:23:36;4.57;;;2.75;;
12986;SDS011;58897;51.960;5.582;2024-01-16T12:26:05;4.75;;;2.90;;
12986;SDS011;58897;51.960;5.582;2024-01-16T12:28:32;3.72;;;2.33;;
12986;SDS011;58897;51.960;5.582;2024-01-16T12:30:59;7.05;;;3.35;;
12986;SDS011;58897;51.960;5.582;2024-01-16T12:33:27;4.25;;;2.45;;
12986;SDS011;58897;51.960;5.582;2024-01-16T12:36:02;4.60;;;2.95;;
12986;SDS011;58897;51.960;5.582;2024-01-16T12:38:30;9.43;;;3.20;;
12986;SDS011;58897;51.960;5.582;2024-01-16T12:40:57;3.33;;;2.20;;
12986;SDS011;58897;51.960;5.582;2024-01-16T12:43:25;5.55;;;2.85;;
12986;SDS011;58897;51.960;5.582;2024-01-16T12:45:55;4.75;;;2.75;;
12986;SDS011;58897;51.960;5.582;2024-01-16T12:48:23;4.10;;;2.60;;
12986;SDS011;58897;51.960;5.582;2024-01-16T12:50:58;9.15;;;2.85;;
12986;SDS011;58897;51.960;5.582;2024-01-16T12:53:29;4.00;;;2.00;;
12986;SDS011;58897;51.960;5.582;2024-01-16T12:56:00;7.38;;;2.75;;
12986;SDS011;58897;51.960;5.582;2024-01-16T12:58:33;7.10;;;2.90;;
12986;SDS011;58897;51.960;5.582;2024-01-16T13:01:22;5.07;;;1.90;;
12986;SDS011;58897;51.960;5.582;2024-01-16T13:04:04;3.25;;;1.85;;
12986;SDS011;58897;51.960;5.582;2024-01-16T13:06:32;4.60;;;2.55;;
12986;SDS011;58897;51.960;5.582;2024-01-16T13:09:05;3.95;;;2.95;;
12986;SDS011;58897;51.960;5.582;2024-01-16T13:11:54;4.65;;;2.45;;
12986;SDS011;58897;51.960;5.582;2024-01-16T13:14:22;4.20;;;2.20;;
12986;SDS011;58897;51.960;5.582;2024-01-16T13:16:50;7.95;;;2.67;;
12986;SDS011;58897;51.960;5.582;2024-01-16T13:19:22;2.97;;;1.95;;
12986;SDS011;58897;51.960;5.582;2024-01-16T13:21:50;3.05;;;1.60;;
12986;SDS011;58897;51.960;5.582;2024-01-16T13:24:17;6.05;;;2.13;;
12986;SDS011;58897;51.960;5.582;2024-01-16T13:26:48;4.30;;;2.15;;
12986;SDS011;58897;51.960;5.582;2024-01-16T13:29:14;4.10;;;2.22;;
12986;SDS011;58897;51.960;5.582;2024-01-16T13:31:42;7.47;;;3.50;;
12986;SDS011;58897;51.960;5.582;2024-01-16T13:34:10;4.10;;;2.00;;
12986;SDS011;58897;51.960;5.582;2024-01-16T13:36:37;3.78;;;1.92;;
12986;SDS011;58897;51.960;5.582;2024-01-16T13:39:23;4.25;;;2.45;;
12986;SDS011;58897;51.960;5.582;2024-01-16T13:41:51;4.22;;;2.50;;
12986;SDS011;58897;51.960;5.582;2024-01-16T13:44:19;3.35;;;2.10;;
12986;SDS011;58897;51.960;5.582;2024-01-16T13:46:45;3.83;;;2.33;;
12986;SDS011;58897;51.960;5.582;2024-01-16T13:49:31;4.10;;;2.08;;
12986;SDS011;58897;51.960;5.582;2024-01-16T13:52:00;3.53;;;2.20;;
12986;SDS011;58897;51.960;5.582;2024-01-16T13:54:26;5.25;;;2.08;;
12986;SDS011;58897;51.960;5.582;2024-01-16T13:56:53;5.50;;;3.42;;
12986;SDS011;58897;51.960;5.582;2024-01-16T13:59:32;7.22;;;2.85;;
12986;SDS011;58897;51.960;5.582;2024-01-16T14:01:59;4.55;;;2.40;;
12986;SDS011;58897;51.960;5.582;2024-01-16T14:04:25;4.43;;;2.13;;
12986;SDS011;58897;51.960;5.582;2024-01-16T14:06:52;8.45;;;2.92;;
12986;SDS011;58897;51.960;5.582;2024-01-16T14:09:38;5.03;;;2.30;;
12986;SDS011;58897;51.960;5.582;2024-01-16T14:12:04;4.15;;;1.98;;
12986;SDS011;58897;51.960;5.582;2024-01-16T14:14:35;3.90;;;2.15;;
12986;SDS011;58897;51.960;5.582;2024-01-16T14:17:02;5.10;;;2.50;;
12986;SDS011;58897;51.960;5.582;2024-01-16T14:19:29;3.55;;;2.17;;
12986;SDS011;58897;51.960;5.582;2024-01-16T14:21:57;7.50;;;2.58;;
12986;SDS011;58897;51.960;5.582;2024-01-16T14:24:24;4.82;;;2.42;;
12986;SDS011;58897;51.960;5.582;2024-01-16T14:26:51;3.95;;;2.05;;
12986;SDS011;58897;51.960;5.582;2024-01-16T14:29:18;5.25;;;2.28;;
12986;SDS011;58897;51.960;5.582;2024-01-16T14:31:45;4.65;;;2.05;;
12986;SDS011;58897;51.960;5.582;2024-01-16T14:34:15;5.50;;;2.50;;
12986;SDS011;58897;51.960;5.582;2024-01-16T14:36:45;10.32;;;2.92;;
12986;SDS011;58897;51.960;5.582;2024-01-16T14:39:13;3.47;;;1.98;;
12986;SDS011;58897;51.960;5.582;2024-01-16T14:41:44;4.32;;;2.33;;
12986;SDS011;58897;51.960;5.582;2024-01-16T14:44:11;2.70;;;1.70;;
12986;SDS011;58897;51.960;5.582;2024-01-16T14:46:37;8.85;;;2.50;;
12986;SDS011;58897;51.960;5.582;2024-01-16T14:49:04;3.55;;;2.10;;
12986;SDS011;58897;51.960;5.582;2024-01-16T14:51:31;3.63;;;1.63;;
12986;SDS011;58897;51.960;5.582;2024-01-16T14:53:58;4.97;;;2.33;;
12986;SDS011;58897;51.960;5.582;2024-01-16T14:56:28;7.00;;;3.00;;
12986;SDS011;58897;51.960;5.582;2024-01-16T14:58:55;8.68;;;2.92;;
12986;SDS011;58897;51.960;5.582;2024-01-16T15:01:21;4.68;;;2.65;;
12986;SDS011;58897;51.960;5.582;2024-01-16T15:03:48;6.38;;;2.47;;
12986;SDS011;58897;51.960;5.582;2024-01-16T15:06:15;6.25;;;2.50;;
12986;SDS011;58897;51.960;5.582;2024-01-16T15:08:43;3.88;;;1.83;;
12986;SDS011;58897;51.960;5.582;2024-01-16T15:11:10;3.75;;;1.90;;
12986;SDS011;58897;51.960;5.582;2024-01-16T15:13:37;3.83;;;2.28;;
12986;SDS011;58897;51.960;5.582;2024-01-16T15:18:30;4.00;;;2.50;;
12986;SDS011;58897;51.960;5.582;2024-01-16T15:20:57;5.45;;;2.70;;
12986;SDS011;58897;51.960;5.582;2024-01-16T15:23:24;2.40;;;1.70;;
12986;SDS011;58897;51.960;5.582;2024-01-16T15:25:51;5.40;;;3.15;;
12986;SDS011;58897;51.960;5.582;2024-01-16T15:28:18;6.00;;;2.58;;
12986;SDS011;58897;51.960;5.582;2024-01-16T15:33:12;8.75;;;2.00;;
12986;SDS011;58897;51.960;5.582;2024-01-16T15:35:40;5.35;;;2.40;;
12986;SDS011;58897;51.960;5.582;2024-01-16T15:38:07;8.30;;;4.32;;
12986;SDS011;58897;51.960;5.582;2024-01-16T15:40:34;12.18;;;6.20;;
12986;SDS011;58897;51.960;5.582;2024-01-16T15:43:00;6.30;;;3.60;;
12986;SDS011;58897;51.960;5.582;2024-01-16T15:45:27;4.10;;;2.78;;
12986;SDS011;58897;51.960;5.582;2024-01-16T15:47:55;6.47;;;2.38;;
12986;SDS011;58897;51.960;5.582;2024-01-16T15:50:22;6.68;;;2.53;;
12986;SDS011;58897;51.960;5.582;2024-01-16T15:55:18;4.25;;;2.42;;
12986;SDS011;58897;51.960;5.582;2024-01-16T16:00:11;5.47;;;2.72;;
12986;SDS011;58897;51.960;5.582;2024-01-16T16:02:38;8.80;;;2.50;;
12986;SDS011;58897;51.960;5.582;2024-01-16T16:05:05;6.15;;;3.25;;
12986;SDS011;58897;51.960;5.582;2024-01-16T16:07:32;5.05;;;2.17;;
12986;SDS011;58897;51.960;5.582;2024-01-16T16:09:59;3.42;;;1.70;;
12986;SDS011;58897;51.960;5.582;2024-01-16T16:12:25;4.53;;;2.75;;
12986;SDS011;58897;51.960;5.582;2024-01-16T16:14:52;5.60;;;2.58;;
12986;SDS011;58897;51.960;5.582;2024-01-16T16:17:19;7.38;;;3.47;;
12986;SDS011;58897;51.960;5.582;2024-01-16T16:19:46;6.18;;;2.22;;
12986;SDS011;58897;51.960;5.582;2024-01-16T16:22:15;4.20;;;1.95;;
12986;SDS011;58897;51.960;5.582;2024-01-16T16:24:42;9.40;;;2.83;;
12986;SDS011;58897;51.960;5.582;2024-01-16T16:27:25;5.05;;;2.40;;
12986;SDS011;58897;51.960;5.582;2024-01-16T16:29:55;5.40;;;2.67;;
12986;SDS011;58897;51.960;5.582;2024-01-16T16:32:23;6.55;;;2.22;;
12986;SDS011;58897;51.960;5.582;2024-01-16T16:34:50;5.00;;;2.70;;
12986;SDS011;58897;51.960;5.582;2024-01-16T16:39:44;8.35;;;2.53;;
12986;SDS011;58897;51.960;5.582;2024-01-16T16:42:11;4.05;;;2.15;;
12986;SDS011;58897;51.960;5.582;2024-01-16T16:44:38;5.22;;;2.45;;
12986;SDS011;58897;51.960;5.582;2024-01-16T16:49:31;7.97;;;3.03;;